If you wish to contribute or participate in the discussions about articles you are invited to join SKYbrary as a registered user

 Actions

Atka Airport

From SKYbrary Wiki

PAAK
Airport
ICAO: PAAK – IATA: AKB
Summary
Name Atka Airport
Region North America
Territory Alaska US.gif
Location , Alaska
Serving Atka
Elevation 17.374 m
57 ft
57 ft17.374 m
Type small airport
Coordinates 52° 13' 13.00" N, 174° 12' 23.00" W
Runways
Designator Length Width Surface ROPS
16/34 1372 m4,501.312 ft
30 m98.425 ft
ASPH-E /


METAR
Observation PAAK 151556Z AUTO 27006KT 10SM -SN FEW025 BKN040 M01/M02 A2969 RMK AO2 SNB08 SLP055 P0000 T10061017 FZRANO
Station Atka, Atka Airport
Date/Time 15 December 2018 15:56:00
Wind direction 270°
Wind speed 06 kts
Lowest cloud amount few clouds
Temperature
Dew point
Humidity 92%
QNH hPa
Weather condition light snow